createdAt,value
2016-11-19T00:02:34.841Z,0
2016-11-19T00:03:47.938Z,0
2016-11-19T00:05:00.362Z,0
2016-11-19T00:06:12.787Z,0
2016-11-19T00:07:25.772Z,0
2016-11-19T00:08:39.166Z,0
2016-11-19T00:09:51.558Z,0
2016-11-19T00:11:03.986Z,0
2016-11-19T00:12:16.906Z,0
2016-11-19T00:13:30.444Z,0
2016-11-19T00:14:43.525Z,0
2016-11-19T00:15:57.039Z,0
2016-11-19T00:17:09.461Z,0
2016-11-19T00:18:22.892Z,0
2016-11-19T00:19:36.117Z,0
2016-11-19T00:20:49.650Z,0
2016-11-19T00:22:03.041Z,0
2016-11-19T00:23:16.534Z,0
2016-11-19T00:24:29.526Z,0
2016-11-19T00:25:42.118Z,0
2016-11-19T00:26:54.567Z,0
2016-11-19T00:28:08.192Z,0
2016-11-19T00:29:21.710Z,0
2016-11-19T00:30:34.775Z,0
2016-11-19T00:31:48.268Z,0
2016-11-19T00:33:00.654Z,0
2016-11-19T00:34:13.156Z,0
2016-11-19T00:35:25.541Z,0
2016-11-19T00:36:38.082Z,0
2016-11-19T00:37:51.060Z,0
2016-11-19T00:39:04.501Z,0
2016-11-19T00:40:17.890Z,0
2016-11-19T00:41:29.754Z,0
2016-11-19T00:42:43.298Z,0
2016-11-19T00:43:56.756Z,0
2016-11-19T00:45:10.231Z,0
2016-11-19T00:46:23.751Z,0
2016-11-19T00:47:36.843Z,0
2016-11-19T00:48:50.367Z,0
2016-11-19T00:50:02.730Z,0
2016-11-19T00:51:15.715Z,0
2016-11-19T00:54:12.772Z,0
2016-11-19T00:55:26.253Z,0
2016-11-19T00:56:38.136Z,0
2016-11-19T00:57:51.666Z,0
2016-11-19T00:59:05.124Z,0
2016-11-19T01:00:18.109Z,0
2016-11-19T01:01:31.644Z,0
2016-11-19T01:02:45.129Z,0
2016-11-19T01:03:58.660Z,0
2016-11-19T01:05:11.165Z,0
2016-11-19T01:06:24.724Z,0
2016-11-19T01:07:37.715Z,0
2016-11-19T01:08:50.861Z,0
2016-11-19T01:10:04.350Z,0
2016-11-19T01:11:17.896Z,0
2016-11-19T01:12:31.424Z,0
2016-11-19T01:13:44.409Z,0
2016-11-19T01:14:57.366Z,0
2016-11-19T01:16:09.760Z,0
2016-11-19T01:17:22.146Z,0
2016-11-19T01:18:35.708Z,0
2016-11-19T01:19:49.562Z,0
2016-11-19T01:21:02.965Z,0
2016-11-19T01:22:16.454Z,0
2016-11-19T01:23:29.890Z,0
2016-11-19T01:24:43.339Z,0
2016-11-19T01:25:56.819Z,0
2016-11-19T01:27:10.272Z,0
2016-11-19T01:28:23.277Z,0
2016-11-19T01:29:35.204Z,0
2016-11-19T01:30:48.812Z,0
2016-11-19T01:32:01.235Z,0
2016-11-19T01:33:13.703Z,0
2016-11-19T01:34:26.625Z,0
2016-11-19T01:35:39.036Z,0
2016-11-19T01:36:51.487Z,0
2016-11-19T01:38:03.930Z,0
2016-11-19T01:39:16.328Z,0
2016-11-19T01:40:29.363Z,0
2016-11-19T01:41:42.968Z,0
2016-11-19T01:42:56.501Z,0
2016-11-19T01:44:09.963Z,0
2016-11-19T01:45:22.969Z,0
2016-11-19T01:46:36.473Z,0
2016-11-19T01:47:49.467Z,0
2016-11-19T01:49:02.469Z,0
2016-11-19T01:50:15.914Z,0
2016-11-19T01:51:29.409Z,0
2016-11-19T01:52:41.971Z,0
2016-11-19T01:53:55.461Z,0
2016-11-19T01:55:07.350Z,0
2016-11-19T01:56:20.876Z,0
2016-11-19T01:57:34.348Z,0
2016-11-19T01:58:47.368Z,0
2016-11-19T02:00:00.875Z,0
2016-11-19T02:01:13.780Z,0
2016-11-19T02:02:26.174Z,0
2016-11-19T02:03:39.244Z,0
2016-11-19T02:04:52.200Z,0
2016-11-19T02:06:05.630Z,0
2016-11-19T02:07:18.632Z,0
2016-11-19T02:08:32.096Z,0
2016-11-19T02:09:45.758Z,0
2016-11-19T02:10:59.286Z,0
2016-11-19T02:12:12.789Z,0
2016-11-19T02:13:25.767Z,0
2016-11-19T02:14:39.270Z,0
2016-11-19T02:15:52.246Z,0
2016-11-19T02:17:04.688Z,0
2016-11-19T02:18:17.632Z,0
2016-11-19T02:19:29.620Z,0
2016-11-19T02:20:42.521Z,0
2016-11-19T02:21:56.041Z,0
2016-11-19T02:23:08.939Z,0
2016-11-19T02:24:21.923Z,0
2016-11-19T02:25:34.823Z,0
2016-11-19T02:26:48.349Z,0
2016-11-19T02:28:01.296Z,0
2016-11-19T02:29:14.260Z,0
2016-11-19T02:30:26.762Z,0
2016-11-19T02:31:39.204Z,0
2016-11-19T02:32:51.093Z,0
2016-11-19T02:34:04.609Z,0
2016-11-19T02:35:17.084Z,0
2016-11-19T02:36:30.567Z,0
2016-11-19T02:37:43.543Z,0
2016-11-19T02:38:57.041Z,0
2016-11-19T02:40:09.978Z,0
2016-11-19T02:41:23.087Z,0
2016-11-19T02:42:35.517Z,0
2016-11-19T02:43:49.053Z,0
2016-11-19T02:45:02.012Z,0
2016-11-19T02:46:14.997Z,0
2016-11-19T02:47:28.445Z,0
2016-11-19T02:48:41.974Z,0
2016-11-19T02:49:55.527Z,0
2016-11-19T02:51:08.967Z,0
2016-11-19T02:52:22.049Z,0
2016-11-19T02:53:34.464Z,0
2016-11-19T02:54:48.005Z,0
2016-11-19T02:56:01.450Z,0
2016-11-19T02:57:14.497Z,0
2016-11-19T02:58:26.984Z,0
2016-11-19T02:59:38.901Z,0
2016-11-19T03:00:51.349Z,0
2016-11-19T03:02:04.376Z,0
2016-11-19T03:03:16.991Z,0
2016-11-19T03:04:30.471Z,0
2016-11-19T03:05:43.992Z,0
2016-11-19T03:06:56.463Z,0
2016-11-19T03:08:10.047Z,0
2016-11-19T03:09:22.984Z,0
2016-11-19T03:10:35.858Z,0
2016-11-19T03:11:48.231Z,0
2016-11-19T03:13:01.250Z,0
2016-11-19T03:14:13.788Z,0
2016-11-19T03:15:26.728Z,0
2016-11-19T03:16:39.643Z,0
2016-11-19T03:17:52.651Z,0
2016-11-19T03:19:06.090Z,0
2016-11-19T03:20:18.022Z,0
2016-11-19T03:21:31.486Z,0
2016-11-19T03:22:43.370Z,0
2016-11-19T03:23:55.728Z,0
2016-11-19T03:25:08.756Z,0
2016-11-19T03:26:22.231Z,0
2016-11-19T03:27:35.702Z,0
2016-11-19T03:28:48.633Z,0
2016-11-19T03:30:01.103Z,0
2016-11-19T03:31:14.585Z,0
2016-11-19T03:32:28.113Z,0
2016-11-19T03:33:41.081Z,0
2016-11-19T03:34:54.084Z,0
2016-11-19T03:36:07.211Z,0
2016-11-19T03:37:20.718Z,0
2016-11-19T03:38:34.203Z,0
2016-11-19T03:39:47.162Z,0
2016-11-19T03:41:00.605Z,0
2016-11-19T03:42:13.532Z,0
2016-11-19T03:43:25.958Z,0
2016-11-19T03:44:39.609Z,0
2016-11-19T03:45:52.767Z,0
2016-11-19T03:47:05.820Z,0
2016-11-19T03:48:18.717Z,0
2016-11-19T03:49:32.204Z,0
2016-11-19T03:50:45.136Z,0
2016-11-19T03:51:57.685Z,0
2016-11-19T03:53:11.187Z,0
2016-11-19T03:54:24.236Z,0
2016-11-19T03:55:37.215Z,0
2016-11-19T03:56:50.680Z,0
2016-11-19T03:58:03.747Z,0
2016-11-19T03:59:17.175Z,0
2016-11-19T04:00:30.082Z,0
2016-11-19T04:01:43.556Z,0
2016-11-19T04:02:57.143Z,0
2016-11-19T04:04:10.607Z,0
2016-11-19T04:05:24.131Z,0
2016-11-19T04:06:37.497Z,0
2016-11-19T04:07:50.890Z,0
2016-11-19T04:09:04.467Z,0
2016-11-19T04:10:18.043Z,0
2016-11-19T04:11:31.553Z,0
2016-11-19T04:12:45.111Z,0
2016-11-19T04:13:58.572Z,0
2016-11-19T04:15:12.074Z,0
2016-11-19T04:16:25.513Z,0
2016-11-19T04:17:38.491Z,0
2016-11-19T04:18:51.390Z,0
2016-11-19T04:20:04.481Z,0
2016-11-19T04:21:17.966Z,0
2016-11-19T04:22:30.381Z,0
2016-11-19T04:23:43.340Z,0
2016-11-19T04:24:55.259Z,0
2016-11-19T04:26:08.208Z,0
2016-11-19T04:27:21.110Z,0
2016-11-19T04:28:34.572Z,0
2016-11-19T04:29:47.050Z,0
2016-11-19T04:31:00.088Z,0
2016-11-19T04:32:12.506Z,0
2016-11-19T04:33:25.498Z,0
2016-11-19T04:34:38.455Z,0
2016-11-19T04:35:52.026Z,0
2016-11-19T04:37:04.954Z,0
2016-11-19T04:38:18.483Z,0
2016-11-19T04:39:31.959Z,0
2016-11-19T04:40:45.481Z,0
2016-11-19T04:41:58.619Z,0
2016-11-19T04:43:12.096Z,0
2016-11-19T04:44:25.534Z,0
2016-11-19T04:45:38.445Z,0
2016-11-19T04:46:52.014Z,0
2016-11-19T04:48:03.349Z,0
2016-11-19T04:49:15.761Z,0
2016-11-19T04:50:28.677Z,0
2016-11-19T04:51:41.099Z,0
2016-11-19T04:52:53.611Z,0
2016-11-19T04:54:07.037Z,0
2016-11-19T04:55:19.998Z,0
2016-11-19T04:56:32.902Z,0
2016-11-19T04:57:46.299Z,0
2016-11-19T04:58:59.243Z,0
2016-11-19T05:00:12.173Z,0
2016-11-19T05:01:25.199Z,0
2016-11-19T05:02:38.716Z,0
2016-11-19T05:03:51.302Z,0
2016-11-19T05:05:04.274Z,0
2016-11-19T05:06:16.141Z,0
2016-11-19T05:07:28.019Z,0
2016-11-19T05:08:41.542Z,0
2016-11-19T05:09:54.510Z,0
2016-11-19T05:11:07.951Z,0
2016-11-19T05:12:21.430Z,0
2016-11-19T05:13:34.407Z,0
2016-11-19T05:14:47.444Z,0
2016-11-19T05:16:00.436Z,0
2016-11-19T05:18:57.400Z,0
2016-11-19T05:20:10.922Z,0
2016-11-19T05:21:24.384Z,0
2016-11-19T05:22:37.871Z,0
2016-11-19T05:23:50.802Z,0
2016-11-19T05:25:03.707Z,0
2016-11-19T05:26:16.116Z,0
2016-11-19T05:27:28.545Z,0
2016-11-19T05:28:41.592Z,0
2016-11-19T05:30:26.438Z,0
2016-11-19T05:31:39.372Z,0
2016-11-19T05:32:51.778Z,0
2016-11-19T05:34:05.268Z,0
2016-11-19T05:35:18.955Z,0
2016-11-19T05:36:31.946Z,0
2016-11-19T05:37:44.838Z,0
2016-11-19T05:38:57.759Z,0
2016-11-19T05:40:10.213Z,0
2016-11-19T05:41:23.335Z,0
2016-11-19T05:42:36.364Z,0
2016-11-19T05:43:48.780Z,0
2016-11-19T05:45:32.899Z,0
2016-11-19T05:46:45.442Z,0
2016-11-19T05:47:58.940Z,0
2016-11-19T05:49:12.412Z,0
2016-11-19T05:50:25.927Z,0
2016-11-19T05:51:39.387Z,0
2016-11-19T05:52:52.286Z,0
2016-11-19T05:54:05.761Z,0
2016-11-19T05:55:19.176Z,0
2016-11-19T05:56:32.704Z,0
2016-11-19T05:57:46.289Z,0
2016-11-19T05:58:59.742Z,0
2016-11-19T06:00:13.253Z,0
2016-11-19T06:01:26.686Z,0
2016-11-19T06:02:39.641Z,0
2016-11-19T06:03:52.596Z,0
2016-11-19T06:05:04.968Z,0
2016-11-19T06:06:18.480Z,0
2016-11-19T06:07:32.060Z,0
2016-11-19T06:08:45.157Z,0
2016-11-19T06:09:58.599Z,0
2016-11-19T06:11:11.057Z,0
2016-11-19T06:12:24.024Z,0
2016-11-19T06:13:37.114Z,0
2016-11-19T06:14:50.647Z,0
2016-11-19T06:16:03.616Z,0
2016-11-19T06:17:16.603Z,0
2016-11-19T06:18:29.557Z,0
2016-11-19T06:19:42.666Z,0
2016-11-19T06:20:55.982Z,0
2016-11-19T06:22:09.443Z,0
2016-11-19T06:23:21.879Z,0
2016-11-19T06:24:34.756Z,0
2016-11-19T06:25:47.771Z,0
2016-11-19T06:27:01.345Z,0
2016-11-19T06:28:14.308Z,0
2016-11-19T06:29:27.780Z,0
2016-11-19T06:30:41.338Z,0
2016-11-19T06:31:54.260Z,0
2016-11-19T06:33:07.209Z,0
2016-11-19T06:34:20.122Z,0
2016-11-19T06:35:33.648Z,0
2016-11-19T06:36:46.580Z,0
2016-11-19T06:38:00.017Z,0
2016-11-19T06:39:13.519Z,0
2016-11-19T06:40:26.971Z,0
2016-11-19T06:41:40.168Z,0
2016-11-19T06:42:53.604Z,0
2016-11-19T06:44:06.734Z,0
2016-11-19T06:45:19.700Z,0
2016-11-19T06:46:32.231Z,0
2016-11-19T06:47:45.663Z,0
2016-11-19T06:48:59.210Z,0
2016-11-19T06:50:11.653Z,0
2016-11-19T06:53:08.823Z,0
2016-11-19T06:54:21.805Z,0
2016-11-19T06:55:35.391Z,0
2016-11-19T06:56:47.941Z,0
2016-11-19T06:58:01.475Z,0
2016-11-19T06:59:14.398Z,0
2016-11-19T07:00:27.378Z,0
2016-11-19T07:01:39.814Z,0
2016-11-19T07:02:53.241Z,0
2016-11-19T07:04:06.199Z,0
2016-11-19T07:05:19.188Z,0
2016-11-19T07:06:32.123Z,0
2016-11-19T07:07:45.193Z,0
2016-11-19T07:08:57.574Z,0
2016-11-19T07:10:11.021Z,0
2016-11-19T07:11:24.530Z,0
2016-11-19T07:12:37.613Z,0
2016-11-19T07:13:50.074Z,0
2016-11-19T07:15:03.580Z,0
2016-11-19T07:16:17.053Z,0
2016-11-19T07:17:29.965Z,0
2016-11-19T07:18:42.993Z,0
2016-11-19T07:19:55.352Z,0
2016-11-19T07:21:07.751Z,0
2016-11-19T07:22:20.740Z,0
2016-11-19T07:23:34.237Z,0
2016-11-19T07:24:47.173Z,0
2016-11-19T07:26:00.660Z,0
2016-11-19T07:27:13.071Z,0
2016-11-19T07:28:26.544Z,0
2016-11-19T07:29:40.153Z,0
2016-11-19T07:30:52.770Z,0
2016-11-19T07:32:05.719Z,0
2016-11-19T07:33:18.682Z,0
2016-11-19T07:34:31.771Z,0
2016-11-19T07:35:44.784Z,0
2016-11-19T07:36:57.742Z,0
2016-11-19T07:38:11.235Z,0
2016-11-19T07:39:23.735Z,0
2016-11-19T07:40:36.788Z,0
2016-11-19T07:41:50.339Z,0
2016-11-19T07:43:02.280Z,0
2016-11-19T07:44:15.320Z,0
2016-11-19T07:45:28.260Z,0
2016-11-19T07:46:40.643Z,0
2016-11-19T07:47:54.107Z,0
2016-11-19T07:49:07.761Z,0
2016-11-19T07:50:20.738Z,0
2016-11-19T07:51:34.280Z,0
2016-11-19T07:52:47.807Z,0
2016-11-19T07:54:00.820Z,0
2016-11-19T07:55:14.305Z,0
2016-11-19T07:56:27.250Z,0
2016-11-19T07:57:40.736Z,0
2016-11-19T07:58:54.205Z,0
2016-11-19T08:00:06.615Z,0
2016-11-19T08:01:20.150Z,5
2016-11-19T08:02:33.248Z,5
2016-11-19T08:03:46.190Z,5
2016-11-19T08:04:58.604Z,5
2016-11-19T08:06:11.596Z,10
2016-11-19T08:07:24.558Z,10
2016-11-19T08:09:09.141Z,15
2016-11-19T08:10:21.562Z,15
2016-11-19T08:11:33.997Z,20
2016-11-19T08:12:47.582Z,20
2016-11-19T08:13:59.977Z,25
2016-11-19T08:15:13.387Z,25
2016-11-19T08:16:26.342Z,30
2016-11-19T08:17:39.787Z,30
2016-11-19T08:18:53.295Z,30
2016-11-19T08:20:06.720Z,35
2016-11-19T08:21:19.687Z,40
2016-11-19T08:22:32.604Z,45
2016-11-19T08:23:45.632Z,50
2016-11-19T08:24:58.131Z,50
2016-11-19T08:26:11.576Z,55
2016-11-19T08:27:24.001Z,65
2016-11-19T08:28:36.906Z,75
2016-11-19T08:29:49.850Z,85
2016-11-19T08:31:02.902Z,85
2016-11-19T08:32:15.817Z,80
2016-11-19T08:33:28.806Z,85
2016-11-19T08:34:41.990Z,95
2016-11-19T08:35:55.525Z,100
2016-11-19T08:37:07.899Z,105
2016-11-19T08:38:20.826Z,110
2016-11-19T08:39:33.373Z,115
2016-11-19T08:40:46.408Z,115
2016-11-19T08:41:59.933Z,120
2016-11-19T08:43:13.391Z,120
2016-11-19T08:44:26.325Z,125
2016-11-19T08:45:39.402Z,130
2016-11-19T08:46:52.396Z,130
2016-11-19T08:48:05.344Z,135
2016-11-19T08:49:18.276Z,155
2016-11-19T08:50:31.885Z,200
2016-11-19T08:51:44.828Z,205
2016-11-19T08:52:58.371Z,205
2016-11-19T08:54:11.303Z,220
2016-11-19T08:55:24.280Z,245
2016-11-19T08:56:37.396Z,245
2016-11-19T08:57:49.858Z,250
2016-11-19T08:59:02.833Z,275
2016-11-19T09:00:15.765Z,290
2016-11-19T09:01:28.246Z,300
2016-11-19T09:02:41.155Z,280
2016-11-19T09:03:54.116Z,330
2016-11-19T09:05:07.172Z,345
2016-11-19T09:06:20.062Z,340
2016-11-19T09:07:33.705Z,310
2016-11-19T09:08:46.701Z,250
2016-11-19T09:09:59.107Z,185
2016-11-19T09:11:12.034Z,160
2016-11-19T09:12:25.579Z,145
2016-11-19T09:13:39.033Z,130
2016-11-19T09:14:52.538Z,130
2016-11-19T09:16:05.545Z,140
2016-11-19T09:17:18.515Z,160
2016-11-19T09:18:31.615Z,180
2016-11-19T09:19:45.166Z,180
2016-11-19T09:20:58.597Z,180
2016-11-19T09:22:42.663Z,185
2016-11-19T09:23:55.664Z,190
2016-11-19T09:25:08.651Z,200
2016-11-19T09:26:21.621Z,215
2016-11-19T09:27:34.519Z,220
2016-11-19T09:28:47.602Z,225
2016-11-19T09:30:01.087Z,265
2016-11-19T09:31:14.588Z,265
2016-11-19T09:32:57.605Z,275
2016-11-19T09:34:11.151Z,280
2016-11-19T09:35:23.637Z,270
2016-11-19T09:36:36.530Z,270
2016-11-19T09:37:49.565Z,250
2016-11-19T09:39:03.182Z,205
2016-11-19T09:40:16.664Z,200
2016-11-19T09:43:14.184Z,275
2016-11-19T09:44:27.711Z,320
2016-11-19T09:45:41.220Z,380
2016-11-19T09:46:54.212Z,435
2016-11-19T09:48:08.131Z,435
2016-11-19T09:49:20.534Z,395
2016-11-19T09:50:34.053Z,465
2016-11-19T09:51:47.580Z,500
2016-11-19T09:53:01.127Z,510
2016-11-19T09:54:13.508Z,545
2016-11-19T09:55:26.605Z,575
2016-11-19T09:56:39.597Z,620
2016-11-19T09:57:53.050Z,575
2016-11-19T09:59:06.013Z,565
2016-11-19T10:00:19.596Z,600
2016-11-19T10:01:33.083Z,575
2016-11-19T10:02:44.946Z,555
2016-11-19T10:03:57.853Z,690
2016-11-19T10:06:56.011Z,645
2016-11-19T10:08:09.528Z,650
2016-11-19T10:09:22.449Z,630
2016-11-19T10:10:35.358Z,575
2016-11-19T10:11:49.002Z,570
2016-11-19T10:13:01.471Z,590
2016-11-19T10:14:14.416Z,605
2016-11-19T10:15:27.882Z,450
2016-11-19T10:16:41.450Z,465
2016-11-19T10:17:53.512Z,460
2016-11-19T10:19:06.970Z,510
2016-11-19T10:20:19.924Z,570
2016-11-19T10:21:33.403Z,535
2016-11-19T10:22:47.011Z,490
2016-11-19T10:23:59.011Z,520
2016-11-19T10:25:12.033Z,730
2016-11-19T10:26:25.511Z,755
2016-11-19T10:28:10.221Z,680
2016-11-19T10:29:23.801Z,610
2016-11-19T10:30:36.734Z,640
2016-11-19T10:31:50.227Z,590
2016-11-19T10:33:03.712Z,690
2016-11-19T10:34:17.194Z,1120
2016-11-19T10:35:30.147Z,1495
2016-11-19T10:36:43.076Z,2665
2016-11-19T10:37:56.075Z,2050
2016-11-19T10:39:08.588Z,2970
2016-11-19T10:40:21.503Z,2855
2016-11-19T10:41:34.451Z,2485
2016-11-19T10:42:47.490Z,1940
2016-11-19T10:44:00.809Z,2460
2016-11-19T10:45:14.262Z,2425
2016-11-19T10:46:27.236Z,2560
2016-11-19T10:47:40.100Z,2460
2016-11-19T10:48:53.031Z,1255
2016-11-19T10:50:06.613Z,2990
2016-11-19T10:51:19.665Z,1180
2016-11-19T10:52:32.113Z,770
2016-11-19T10:53:45.644Z,785
2016-11-19T10:54:57.507Z,570
2016-11-19T10:56:09.988Z,595
2016-11-19T10:57:22.959Z,580
2016-11-19T10:58:36.537Z,740
2016-11-19T10:59:50.008Z,455
2016-11-19T11:01:03.600Z,435
2016-11-19T11:02:16.043Z,370
2016-11-19T11:03:29.023Z,245
2016-11-19T11:04:41.992Z,275
2016-11-19T11:05:55.097Z,370
2016-11-19T11:07:08.017Z,475
2016-11-19T11:08:20.987Z,495
2016-11-19T11:09:33.935Z,515
2016-11-19T11:10:46.397Z,515
2016-11-19T11:11:59.920Z,560
2016-11-19T11:13:12.859Z,790
2016-11-19T11:14:26.291Z,1570
2016-11-19T11:15:39.837Z,2175
2016-11-19T11:16:53.400Z,1720
2016-11-19T11:18:06.345Z,1105
2016-11-19T11:19:19.362Z,1025
2016-11-19T11:20:32.920Z,935
2016-11-19T11:21:45.315Z,1000
2016-11-19T11:23:30.091Z,840
2016-11-19T11:24:42.587Z,1155
2016-11-19T11:25:54.948Z,1140
2016-11-19T11:27:08.439Z,1140
2016-11-19T11:28:21.481Z,1135
2016-11-19T11:29:33.938Z,940
2016-11-19T11:30:46.844Z,665
2016-11-19T11:32:00.305Z,695
2016-11-19T11:33:13.328Z,765
2016-11-19T11:34:26.830Z,690
2016-11-19T11:35:39.236Z,770
2016-11-19T11:36:52.190Z,970
2016-11-19T11:38:05.757Z,1170
2016-11-19T11:39:18.832Z,1265
2016-11-19T11:40:31.792Z,1435
2016-11-19T11:41:45.309Z,1545
2016-11-19T11:42:57.750Z,1190
2016-11-19T11:44:10.862Z,2090
2016-11-19T11:45:23.801Z,3505
2016-11-19T11:46:36.800Z,1395
2016-11-19T11:47:50.327Z,3940
2016-11-19T11:49:03.293Z,3880
2016-11-19T11:50:16.392Z,3910
2016-11-19T11:51:29.930Z,1090
2016-11-19T11:52:42.501Z,1285
2016-11-19T11:53:55.987Z,3800
2016-11-19T11:55:09.116Z,3840
2016-11-19T11:56:22.055Z,4000
2016-11-19T11:57:35.062Z,1230
2016-11-19T11:58:48.006Z,1440
2016-11-19T12:00:01.580Z,4305
2016-11-19T12:01:15.158Z,3645
2016-11-19T12:02:28.204Z,2350
2016-11-19T12:03:41.115Z,1120
2016-11-19T12:04:54.585Z,880
2016-11-19T12:06:07.547Z,1075
2016-11-19T12:07:20.993Z,4050
2016-11-19T12:08:34.587Z,1210
2016-11-19T12:09:46.473Z,1300
2016-11-19T12:10:57.825Z,1360
2016-11-19T12:12:10.914Z,865
2016-11-19T12:13:23.885Z,930
2016-11-19T12:14:37.408Z,4240
2016-11-19T12:15:50.340Z,880
2016-11-19T12:17:02.336Z,965
2016-11-19T12:18:15.398Z,4230
2016-11-19T12:19:28.314Z,3005
2016-11-19T12:20:40.738Z,4115
2016-11-19T12:21:53.610Z,1390
2016-11-19T12:23:06.298Z,4185
2016-11-19T12:24:19.278Z,4005
2016-11-19T12:25:32.783Z,3845
2016-11-19T12:26:45.770Z,4425
2016-11-19T12:27:59.213Z,2485
2016-11-19T12:29:12.204Z,4450
2016-11-19T12:30:25.730Z,4760
2016-11-19T12:31:38.690Z,4825
2016-11-19T12:32:51.622Z,4630
2016-11-19T12:34:04.686Z,1500
2016-11-19T12:35:17.199Z,4970
2016-11-19T12:36:29.627Z,3210
2016-11-19T12:37:43.180Z,1980
2016-11-19T12:38:56.634Z,4440
2016-11-19T12:41:12.402Z,4215
2016-11-19T12:42:24.806Z,1300
2016-11-19T12:43:38.310Z,3840
2016-11-19T12:44:50.839Z,1515
2016-11-19T12:46:04.379Z,1230
2016-11-19T12:47:17.386Z,990
2016-11-19T12:48:29.867Z,990
2016-11-19T12:49:42.343Z,1025
2016-11-19T12:50:55.337Z,1095
2016-11-19T12:52:08.823Z,1565
2016-11-19T12:53:21.811Z,5150
2016-11-19T12:54:34.253Z,4645
2016-11-19T12:55:47.363Z,4495
2016-11-19T12:57:00.906Z,4755
2016-11-19T12:58:14.500Z,5080
2016-11-19T12:59:27.580Z,2080
2016-11-19T13:00:40.135Z,1305
2016-11-19T13:01:53.250Z,1985
2016-11-19T13:03:06.232Z,4130
2016-11-19T13:04:19.762Z,3755
2016-11-19T13:05:32.776Z,3195
2016-11-19T13:06:46.354Z,4825
2016-11-19T13:07:59.335Z,1435
2016-11-19T13:09:12.269Z,4775
2016-11-19T13:10:25.203Z,1065
2016-11-19T13:11:38.364Z,4780
2016-11-19T13:12:51.957Z,1350
2016-11-19T13:14:36.613Z,990
2016-11-19T13:15:49.584Z,1430
2016-11-19T13:17:02.635Z,1430
2016-11-19T13:18:15.635Z,1250
2016-11-19T13:19:28.116Z,980
2016-11-19T13:20:40.586Z,1095
2016-11-19T13:21:54.136Z,1380
2016-11-19T13:23:06.607Z,1515
2016-11-19T13:24:20.157Z,1510
2016-11-19T13:25:33.670Z,1120
2016-11-19T13:26:46.142Z,1035
2016-11-19T13:27:58.688Z,1120
2016-11-19T13:29:11.156Z,1125
2016-11-19T13:30:24.102Z,1060
2016-11-19T13:31:37.153Z,930
2016-11-19T13:32:50.751Z,875
2016-11-19T13:34:03.746Z,965
2016-11-19T13:35:17.222Z,1120
2016-11-19T13:36:30.118Z,1390
2016-11-19T13:37:43.558Z,2020
2016-11-19T13:38:57.118Z,1430
2016-11-19T13:40:10.087Z,1400
2016-11-19T13:41:22.995Z,1455
2016-11-19T13:42:35.989Z,1615
2016-11-19T13:43:49.639Z,1810
2016-11-19T13:45:02.058Z,1870
2016-11-19T13:46:15.527Z,1720
2016-11-19T13:47:29.029Z,1705
2016-11-19T13:48:42.458Z,1760
2016-11-19T13:49:55.572Z,1720
2016-11-19T13:51:08.529Z,2295
2016-11-19T13:52:22.067Z,4795
2016-11-19T13:53:34.556Z,5105
2016-11-19T13:54:48.192Z,2215
2016-11-19T13:56:01.655Z,1885
2016-11-19T13:57:14.667Z,2195
2016-11-19T13:58:28.131Z,2170
2016-11-19T13:59:41.108Z,1865
2016-11-19T14:00:54.189Z,2065
2016-11-19T14:02:07.291Z,2675
2016-11-19T14:03:20.883Z,5390
2016-11-19T14:04:33.859Z,5230
2016-11-19T14:05:46.903Z,3190
2016-11-19T14:06:59.836Z,2830
2016-11-19T14:08:13.342Z,5350
2016-11-19T14:09:26.845Z,1725
2016-11-19T14:10:39.842Z,1415
2016-11-19T14:11:52.965Z,1175
2016-11-19T14:13:05.998Z,1335
2016-11-19T14:14:18.973Z,1960
2016-11-19T14:15:31.475Z,4020
2016-11-19T14:16:43.440Z,2435
2016-11-19T14:17:56.938Z,2105
2016-11-19T14:19:09.890Z,1545
2016-11-19T14:20:23.356Z,1425
2016-11-19T14:21:36.385Z,1440
2016-11-19T14:22:49.978Z,1505
2016-11-19T14:24:02.867Z,1545
2016-11-19T14:25:16.319Z,1470
2016-11-19T14:26:29.842Z,1330
2016-11-19T14:27:42.743Z,1090
2016-11-19T14:28:56.284Z,925
2016-11-19T14:30:09.795Z,845
2016-11-19T14:31:22.772Z,845
2016-11-19T14:32:36.272Z,985
2016-11-19T14:33:50.019Z,1120
2016-11-19T14:35:02.954Z,1215
2016-11-19T14:36:16.558Z,1390
2016-11-19T14:37:29.569Z,2410
2016-11-19T14:38:43.119Z,2690
2016-11-19T14:39:55.548Z,5650
2016-11-19T14:41:09.048Z,1565
2016-11-19T14:42:22.076Z,1400
2016-11-19T14:43:35.064Z,1340
2016-11-19T14:44:48.746Z,1475
2016-11-19T14:46:02.374Z,1760
2016-11-19T14:47:47.058Z,1780
2016-11-19T14:48:59.977Z,1370
2016-11-19T14:50:13.160Z,1610
2016-11-19T14:51:26.087Z,1775
2016-11-19T14:52:39.544Z,2410
2016-11-19T14:53:51.417Z,1550
2016-11-19T14:55:05.113Z,1625
2016-11-19T14:56:17.535Z,1635
2016-11-19T14:57:31.054Z,1330
2016-11-19T14:58:44.584Z,1060
2016-11-19T14:59:57.011Z,1105
2016-11-19T15:01:09.556Z,1230
2016-11-19T15:02:23.151Z,1570
2016-11-19T15:03:35.606Z,4555
2016-11-19T15:04:48.614Z,4930
2016-11-19T15:06:02.107Z,4275
2016-11-19T15:07:15.095Z,3085
2016-11-19T15:08:28.088Z,2695
2016-11-19T15:09:41.524Z,2745
2016-11-19T15:10:55.124Z,2285
2016-11-19T15:12:08.313Z,2620
2016-11-19T15:13:20.746Z,2475
2016-11-19T15:14:33.663Z,3615
2016-11-19T15:15:46.129Z,1970
2016-11-19T15:16:59.651Z,1805
2016-11-19T15:18:12.587Z,2000
2016-11-19T15:19:26.106Z,1650
2016-11-19T15:20:39.153Z,1545
2016-11-19T15:21:51.618Z,1960
2016-11-19T15:23:05.423Z,1475
2016-11-19T15:24:18.476Z,1405
2016-11-19T15:25:31.504Z,1335
2016-11-19T15:26:43.869Z,1455
2016-11-19T15:27:56.472Z,2240
2016-11-19T15:29:09.446Z,4835
2016-11-19T15:30:21.916Z,3705
2016-11-19T15:31:34.865Z,2610
2016-11-19T15:32:47.842Z,2350
2016-11-19T15:34:00.983Z,4025
2016-11-19T15:35:13.431Z,2050
2016-11-19T15:36:26.421Z,1800
2016-11-19T15:37:39.963Z,3110
2016-11-19T15:38:52.920Z,2710
2016-11-19T15:40:05.955Z,1665
2016-11-19T15:41:18.900Z,1770
2016-11-19T15:42:31.861Z,1745
2016-11-19T15:43:45.307Z,1725
2016-11-19T15:44:58.946Z,2500
2016-11-19T15:46:11.405Z,1780
2016-11-19T15:47:23.327Z,1540
2016-11-19T15:48:36.832Z,1350
2016-11-19T15:49:49.858Z,1070
2016-11-19T15:51:03.389Z,860
2016-11-19T15:52:16.919Z,780
2016-11-19T15:53:29.941Z,780
2016-11-19T15:54:42.950Z,790
2016-11-19T15:55:55.980Z,835
2016-11-19T15:57:08.401Z,915
2016-11-19T15:58:21.895Z,1075
2016-11-19T15:59:35.317Z,1275
2016-11-19T16:00:48.273Z,1475
2016-11-19T16:02:01.756Z,4555
2016-11-19T16:03:15.217Z,3495
2016-11-19T16:04:28.173Z,3910
2016-11-19T16:05:40.676Z,4380
2016-11-19T16:06:53.797Z,4450
2016-11-19T16:08:06.262Z,3495
2016-11-19T16:09:19.802Z,3410
2016-11-19T16:10:32.336Z,1720
2016-11-19T16:11:45.968Z,3455
2016-11-19T16:12:59.492Z,1480
2016-11-19T16:14:12.939Z,1315
2016-11-19T16:15:25.370Z,1335
2016-11-19T16:16:38.399Z,1535
2016-11-19T16:17:51.969Z,4465
2016-11-19T16:19:05.450Z,4300
2016-11-19T16:20:19.073Z,1400
2016-11-19T16:21:32.617Z,1485
2016-11-19T16:22:45.522Z,1400
2016-11-19T16:23:58.562Z,1350
2016-11-19T16:25:11.544Z,1395
2016-11-19T16:26:25.066Z,1265
2016-11-19T16:29:22.749Z,1110
2016-11-19T16:30:35.751Z,1030
2016-11-19T16:31:49.309Z,980
2016-11-19T16:33:02.308Z,970
2016-11-19T16:34:14.834Z,965
2016-11-19T16:35:27.785Z,960
2016-11-19T16:36:41.309Z,1040
2016-11-19T16:37:54.242Z,1115
2016-11-19T16:39:07.796Z,1155
2016-11-19T16:40:21.372Z,3235
2016-11-19T16:41:34.346Z,920
2016-11-19T16:42:48.036Z,770
2016-11-19T16:44:01.031Z,705
2016-11-19T16:45:13.614Z,695
2016-11-19T16:46:27.115Z,680
2016-11-19T16:47:40.596Z,730
2016-11-19T16:48:54.118Z,840
2016-11-19T16:50:07.612Z,985
2016-11-19T16:51:20.124Z,1105
2016-11-19T16:52:32.638Z,1235
2016-11-19T16:53:45.641Z,1295
2016-11-19T16:54:59.206Z,1350
2016-11-19T16:56:12.800Z,1270
2016-11-19T16:57:26.300Z,1160
2016-11-19T16:58:39.830Z,1120
2016-11-19T16:59:52.818Z,1145
2016-11-19T17:01:05.283Z,1265
2016-11-19T17:02:18.913Z,1330
2016-11-19T17:03:31.439Z,1190
2016-11-19T17:04:44.351Z,1235
2016-11-19T17:05:57.877Z,1280
2016-11-19T17:07:11.608Z,1335
2016-11-19T17:08:24.566Z,1345
2016-11-19T17:09:37.995Z,1410
2016-11-19T17:10:51.009Z,1385
2016-11-19T17:12:03.439Z,1370
2016-11-19T17:13:16.573Z,1375
2016-11-19T17:14:30.049Z,1425
2016-11-19T17:15:43.085Z,1545
2016-11-19T17:16:55.991Z,3110
2016-11-19T17:18:09.646Z,1125
2016-11-19T17:19:22.137Z,830
2016-11-19T17:20:35.133Z,710
2016-11-19T17:21:48.076Z,635
2016-11-19T17:23:01.588Z,600
2016-11-19T17:24:15.315Z,610
2016-11-19T17:25:28.239Z,625
2016-11-19T17:26:41.259Z,690